»·PEaware :: N3501T KPSP-KSBD

N3501T :: KPSP-KSBD

FLIGHT INFORMATION

Flight Status: Arrived
Operator: Privately registered:
United States
More flights under this callsign
Pilot: Kris Z. (17393)
Aircraft: PIPER PA-28 CHEROKEE ARCHER
(PA28)
More flights by this aircraft type
Origin: KPSP Palm Springs Intl
United States
Destination: KSBD San Bernardino Intl
United States
More flights between these airports :: More routes between these airports
Route: WHETO KBNG
File this flight plan on PilotEdge
Remarks:
Altitude:
(Current/Filed)
6,500ft
Speed:
(Current/Filed)
100kts
Departed: 11-Dec-17 07:20 PM
Arrived: 11-Dec-17 07:52 PM
Distance/Time
Traveled:
40nm/0:32
Distance/Time
To Go:
Arrived

Flight Plot

Page will automatically refresh every two minutes.

Flight plan parsing failed; only flown route is shown


Map Options




Map Legend


Flown Route
Filed Route
Departure Airport
Arrival Airport
Navaid (VOR, NDB)
Fix

Horizontal Profiles

Position Reports

Time Latitude Longitude Heading Altitude Ground
Speed
11-Dec-17 19:06 33.822065 -116.496151 321 393ft 0kts
11-Dec-17 19:07 33.822065 -116.496151 321 393ft 0kts
11-Dec-17 19:08 33.822065 -116.496151 321 393ft 0kts
11-Dec-17 19:09 33.822065 -116.496151 321 393ft 0kts
11-Dec-17 19:10 33.822065 -116.496151 321 393ft 0kts
11-Dec-17 19:11 33.822065 -116.496151 321 393ft 0kts
11-Dec-17 19:12 33.822065 -116.496151 321 393ft 0kts
11-Dec-17 19:13 33.822065 -116.496151 321 393ft 0kts
11-Dec-17 19:14 33.822065 -116.496151 321 393ft 0kts
11-Dec-17 19:15 33.822065 -116.496151 321 393ft 0kts
11-Dec-17 19:16 33.822065 -116.496151 321 393ft 0kts
11-Dec-17 19:17 33.822065 -116.496151 321 393ft 0kts
11-Dec-17 19:18 33.822065 -116.496151 321 393ft 0kts
11-Dec-17 19:19 33.822065 -116.496151 321 393ft 0kts
11-Dec-17 19:20 33.822066 -116.496151 321 393ft 0kts
11-Dec-17 19:21 33.822330 -116.496609 288 395ft 15kts
11-Dec-17 19:22 33.821046 -116.495811 303 392ft 7kts
11-Dec-17 19:23 33.824714 -116.499266 288 402ft 10kts
11-Dec-17 19:24 33.824624 -116.499649 231 402ft 0kts
11-Dec-17 19:25 33.824562 -116.500282 334 403ft 4kts
11-Dec-17 19:26 33.833068 -116.506879 329 688ft 76kts
11-Dec-17 19:27 33.852895 -116.515235 348 1657ft 79kts
11-Dec-17 19:28 33.870980 -116.526647 320 2563ft 81kts
11-Dec-17 19:29 33.888845 -116.538810 327 3509ft 73kts
11-Dec-17 19:30 33.906999 -116.552163 321 4326ft 77kts
11-Dec-17 19:31 33.921433 -116.570839 315 5118ft 79kts
11-Dec-17 19:32 33.935139 -116.590457 303 5880ft 79kts
11-Dec-17 19:33 33.942309 -116.616131 278 6618ft 88kts
11-Dec-17 19:34 33.940082 -116.649878 265 6593ft 116kts
11-Dec-17 19:35 33.937292 -116.689201 268 6496ft 113kts
11-Dec-17 19:36 33.932596 -116.725875 264 6529ft 109kts
11-Dec-17 19:37 33.927288 -116.762678 264 6582ft 112kts
11-Dec-17 19:38 33.924823 -116.800103 270 6650ft 112kts
11-Dec-17 19:39 33.920244 -116.841171 268 6372ft 134kts
11-Dec-17 19:40 33.929539 -116.878048 303 5971ft 106kts
11-Dec-17 19:41 33.945239 -116.908827 299 5909ft 105kts
11-Dec-17 19:42 33.958506 -116.945050 296 6038ft 127kts
11-Dec-17 19:43 33.975328 -116.985021 299 5863ft 134kts
11-Dec-17 19:44 33.991421 -117.023086 302 5677ft 133kts
11-Dec-17 19:45 34.010318 -117.062640 305 4975ft 139kts
11-Dec-17 19:46 34.029382 -117.100069 302 4460ft 124kts
11-Dec-17 19:47 34.045196 -117.137974 299 3813ft 127kts
11-Dec-17 19:48 34.059035 -117.176789 291 3019ft 126kts
11-Dec-17 19:49 34.043755 -117.199390 152 2696ft 109kts
11-Dec-17 19:50 34.029378 -117.174090 87 2965ft 82kts
11-Dec-17 19:51 34.035832 -117.151875 26 3431ft 70kts
11-Dec-17 19:52 34.056635 -117.150706 330 3647ft 96kts
11-Dec-17 19:53 34.075019 -117.179264 303 2911ft 115kts
11-Dec-17 19:54 34.088933 -117.214421 287 1956ft 89kts
11-Dec-17 19:55 34.082601 -117.239216 256 1795ft 79kts
11-Dec-17 19:56 34.080147 -117.264124 330 1909ft 66kts
11-Dec-17 19:57 34.092151 -117.245309 54 1255ft 100kts
11-Dec-17 19:58 34.098070 -117.227645 42 1137ft 21kts
11-Dec-17 19:58 34.098781 -117.227045 178 1138ft 9kts
11-Dec-17 20:00 34.092049 -117.246074 251 1091ft 61kts
11-Dec-17 20:01 34.091351 -117.248153 72 1085ft 0kts

Navigation Log

Ident Type
Flight plan parsing failed, navigation log unavailable